Time;durP1;ratioP1;P1;durP2;ratioP2;P2;SDS_P1;SDS_P2;PMS_P1;PMS_P2;Temp;Humidity;BMP_temperature;BMP_pressure;BME280_temperature;BME280_humidity;BME280_pressure;Samples;Min_cycle;Max_cycle;Signal;HPM_P1;HPM_P2
2021/10/23 00:01:44;;;;;;;117.78;88.80;;;384.10;2329.60;;;;;;5093757;28;20078;-74
2021/10/23 00:04:10;;;;;;;121.63;90.72;;;384.10;2329.60;;;;;;5093752;28;20028;-74
2021/10/23 00:06:36;;;;;;;116.07;84.70;;;384.00;2329.60;;;;;;5094234;28;20031;-74
2021/10/23 00:09:02;;;;;;;128.10;95.57;;;384.10;2329.60;;;;;;5093782;28;20392;-73
2021/10/23 00:11:27;;;;;;;132.55;95.70;;;384.00;2329.60;;;;;;5093470;28;20058;-74
2021/10/23 00:13:53;;;;;;;191.95;119.40;;;359.30;2329.60;;;;;;5085681;28;20040;-72
2021/10/23 00:16:19;;;;;;;196.48;128.98;;;359.30;2329.60;;;;;;5080330;28;20039;-74
2021/10/23 00:18:45;;;;;;;232.70;135.95;;;359.30;2329.60;;;;;;5084648;28;20024;-73
2021/10/23 00:21:11;;;;;;;198.05;122.35;;;359.30;2329.60;;;;;;5073912;28;20059;-74
2021/10/23 00:23:36;;;;;;;180.88;112.35;;;359.30;2329.60;;;;;;5074926;28;20064;-75
2021/10/23 00:26:03;;;;;;;161.85;92.97;;;359.30;2329.60;;;;;;5074603;28;20032;-74
2021/10/23 00:28:28;;;;;;;122.75;82.10;;;359.30;2329.60;;;;;;5073300;28;20476;-75
2021/10/23 00:30:54;;;;;;;103.85;67.03;;;359.30;2329.60;;;;;;5073428;28;20067;-74
2021/10/23 00:33:20;;;;;;;87.40;59.38;;;359.30;2329.60;;;;;;5072576;28;20025;-75
2021/10/23 00:35:46;;;;;;;75.35;54.15;;;359.30;2329.60;;;;;;5072701;28;20159;-74
2021/10/23 00:38:12;;;;;;;66.57;49.00;;;359.20;2329.60;;;;;;5073277;28;20467;-73
2021/10/23 00:40:38;;;;;;;52.13;39.17;;;359.10;2329.60;;;;;;5073008;28;20028;-73
2021/10/23 00:43:04;;;;;;;54.83;36.72;;;359.20;2329.60;;;;;;5072917;28;20460;-74
2021/10/23 00:45:30;;;;;;;36.55;29.38;;;359.20;2329.60;;;;;;5073091;28;20028;-74
2021/10/23 00:47:55;;;;;;;37.78;28.75;;;359.20;2329.60;;;;;;5073718;28;20025;-76
2021/10/23 00:50:22;;;;;;;37.25;29.25;;;359.10;2329.60;;;;;;5073772;28;20047;-74
2021/10/23 00:52:49;;;;;;;41.13;29.83;;;359.10;2329.60;;;;;;5073061;28;20051;-74
2021/10/23 00:55:16;;;;;;;37.65;28.85;;;359.10;2329.60;;;;;;5073664;28;20051;-74
2021/10/23 00:57:42;;;;;;;67.00;47.42;;;359.00;2329.60;;;;;;5072924;28;20464;-74
2021/10/23 01:00:09;;;;;;;61.15;46.15;;;359.00;2329.60;;;;;;5092841;28;20076;-74
2021/10/23 01:02:35;;;;;;;63.70;45.90;;;359.20;2329.60;;;;;;5081995;28;20021;-73
2021/10/23 01:05:06;;;;;;;68.22;48.55;;;359.00;2329.60;;;;;;5071933;28;20037;-74
2021/10/23 01:07:34;;;;;;;64.28;46.35;;;359.00;2329.60;;;;;;5072731;28;20020;-75
2021/10/23 01:10:00;;;;;;;62.00;45.92;;;359.00;2329.60;;;;;;5073693;28;20028;-73
2021/10/23 01:12:26;;;;;;;59.45;44.95;;;359.00;2329.60;;;;;;5089046;28;20487;-74
2021/10/23 01:14:52;;;;;;;56.78;43.35;;;359.00;2329.60;;;;;;5092155;28;20463;-73
2021/10/23 01:17:22;;;;;;;75.00;51.80;;;358.90;2329.60;;;;;;5092186;28;20077;-74
2021/10/23 01:19:57;;;;;;;89.07;65.93;;;358.90;2329.60;;;;;;5092268;28;20024;-74
2021/10/23 01:22:29;;;;;;;85.93;63.97;;;359.00;2329.60;;;;;;5091718;28;20035;-73
2021/10/23 01:24:56;;;;;;;;;;;359.00;2329.60;;;;;;5093713;28;20036;-74
2021/10/23 01:27:22;;;;;;;94.90;67.50;;;359.00;2329.60;;;;;;5093337;28;19908;-73
2021/10/23 01:29:48;;;;;;;97.10;69.38;;;359.00;2329.60;;;;;;5093094;28;20031;-72
2021/10/23 01:32:14;;;;;;;98.25;72.53;;;359.00;2329.60;;;;;;5093175;28;20032;-75
2021/10/23 01:34:40;;;;;;;116.13;81.50;;;358.90;2329.60;;;;;;5093093;28;20487;-75
2021/10/23 01:37:05;;;;;;;72.90;52.53;;;358.90;2329.60;;;;;;5094211;28;20035;-74
2021/10/23 01:39:34;;;;;;;55.95;41.50;;;358.90;2329.60;;;;;;5093066;28;20058;-75
2021/10/23 01:42:02;;;;;;;60.97;43.35;;;358.90;2329.60;;;;;;5093809;28;20024;-76
2021/10/23 01:44:34;;;;;;;54.50;39.70;;;359.00;2329.60;;;;;;5093202;28;20118;-75
2021/10/23 01:47:03;;;;;;;48.42;35.42;;;359.00;2329.60;;;;;;5092990;28;20032;-76
2021/10/23 01:49:29;;;;;;;42.05;32.70;;;359.00;2329.60;;;;;;5093090;28;20024;-75
2021/10/23 01:51:55;;;;;;;37.65;30.40;;;359.00;2329.60;;;;;;5093153;28;20111;-76
2021/10/23 01:54:21;;;;;;;41.55;29.77;;;359.00;2329.60;;;;;;5092811;28;20024;-75
2021/10/23 01:56:47;;;;;;;41.22;29.77;;;359.00;2329.60;;;;;;5093054;28;20024;-74
2021/10/23 01:59:12;;;;;;;38.25;29.48;;;359.00;2329.60;;;;;;5092997;28;20028;-75
2021/10/23 02:01:38;;;;;;;38.83;30.58;;;359.00;2329.60;;;;;;5092683;28;20035;-76
2021/10/23 02:04:05;;;;;;;37.95;30.02;;;358.90;2329.60;;;;;;5092856;28;20028;-74
2021/10/23 02:06:32;;;;;;;51.33;35.92;;;359.00;2329.60;;;;;;5092597;28;20063;-75
2021/10/23 02:08:58;;;;;;;42.28;33.17;;;358.90;2329.60;;;;;;5094427;28;20024;-75
2021/10/23 02:11:24;;;;;;;38.85;28.80;;;359.00;2329.60;;;;;;5092842;28;20079;-75
2021/10/23 02:13:50;;;;;;;32.70;24.85;;;359.00;2329.60;;;;;;5093885;28;20060;-75
2021/10/23 02:16:16;;;;;;;41.70;30.38;;;359.00;2329.60;;;;;;5092831;28;20062;-75
2021/10/23 02:18:42;;;;;;;42.15;30.25;;;359.00;2329.60;;;;;;5092755;28;20483;-75
2021/10/23 02:21:09;;;;;;;68.50;49.50;;;358.90;2329.60;;;;;;5092460;28;20035;-75
2021/10/23 02:23:35;;;;;;;54.63;36.33;;;358.90;2329.60;;;;;;5092657;28;20028;-75
2021/10/23 02:26:01;;;;;;;46.13;34.45;;;358.80;2329.60;;;;;;5093976;28;20032;-75
2021/10/23 02:28:27;;;;;;;42.75;29.83;;;358.80;2329.60;;;;;;5092418;28;20060;-75
2021/10/23 02:30:54;;;;;;;43.13;33.85;;;358.80;2329.60;;;;;;5092685;28;20065;-75
2021/10/23 02:33:19;;;;;;;42.83;32.35;;;358.80;2329.60;;;;;;5093668;28;20035;-75
2021/10/23 02:35:45;;;;;;;49.17;34.30;;;358.80;2329.60;;;;;;5092176;28;20048;-75
2021/10/23 02:38:11;;;;;;;50.25;36.63;;;358.80;2329.60;;;;;;5093561;28;20024;-74
2021/10/23 02:40:38;;;;;;;81.90;48.00;;;358.80;2329.60;;;;;;5092643;28;20456;-74
2021/10/23 02:43:04;;;;;;;71.68;42.80;;;358.80;2329.60;;;;;;5092214;28;20460;-75
2021/10/23 02:45:30;;;;;;;68.97;39.00;;;358.70;2329.60;;;;;;5093634;28;20032;-74
2021/10/23 02:47:56;;;;;;;57.55;35.08;;;358.70;2329.60;;;;;;5092389;28;20042;-74
2021/10/23 02:50:22;;;;;;;50.15;34.08;;;358.70;2329.60;;;;;;5093173;28;20028;-75
2021/10/23 02:52:48;;;;;;;73.05;46.97;;;358.70;2329.60;;;;;;5093693;28;20109;-75
2021/10/23 02:55:14;;;;;;;122.53;72.97;;;358.70;2329.60;;;;;;5093737;28;20113;-75
2021/10/23 02:57:40;;;;;;;112.00;69.53;;;358.70;2329.60;;;;;;5093084;28;20456;-76
2021/10/23 03:00:07;;;;;;;65.82;42.67;;;358.70;2329.60;;;;;;5092293;28;20127;-75
2021/10/23 03:02:33;;;;;;;62.50;41.58;;;358.60;2329.60;;;;;;5092063;28;20357;-75
2021/10/23 03:05:02;;;;;;;58.30;42.10;;;358.70;2329.60;;;;;;5093391;28;20035;-74
2021/10/23 03:07:28;;;;;;;63.50;46.38;;;358.80;2329.60;;;;;;5093229;28;20060;-76
2021/10/23 03:09:54;;;;;;;48.45;35.72;;;333.70;2329.60;;;;;;5094545;28;20028;-75
2021/10/23 03:12:20;;;;;;;43.40;33.10;;;358.60;2329.60;;;;;;5094900;28;20118;-75
2021/10/23 03:14:46;;;;;;;56.35;39.65;;;358.60;2329.60;;;;;;5093895;28;20495;-74
2021/10/23 03:17:11;;;;;;;62.33;46.90;;;358.60;2329.60;;;;;;5092953;28;20154;-75
2021/10/23 03:19:37;;;;;;;57.13;39.65;;;358.70;2329.60;;;;;;5093503;28;20456;-75
2021/10/23 03:22:03;;;;;;;48.72;38.22;;;358.80;2329.60;;;;;;5095465;28;20374;-75
2021/10/23 03:24:29;;;;;;;50.95;38.55;;;358.70;2329.60;;;;;;5093913;28;20119;-74
2021/10/23 03:26:55;;;;;;;56.33;37.13;;;358.80;2329.60;;;;;;5093883;28;20035;-73
2021/10/23 03:29:20;;;;;;;51.45;37.55;;;358.80;2329.60;;;;;;5094407;28;20123;-75
2021/10/23 03:31:46;;;;;;;44.40;34.60;;;358.80;2329.60;;;;;;5094560;28;20024;-74
2021/10/23 03:34:12;;;;;;;44.05;34.13;;;358.80;2329.60;;;;;;5093542;28;20487;-74
2021/10/23 03:36:38;;;;;;;41.60;31.15;;;358.80;2329.60;;;;;;5093240;28;20028;-74
2021/10/23 03:39:05;;;;;;;37.90;29.60;;;358.80;2329.60;;;;;;5092389;28;20035;-74
2021/10/23 03:41:31;;;;;;;36.75;27.23;;;358.70;2329.60;;;;;;5091970;28;20035;-74
2021/10/23 03:43:56;;;;;;;32.95;25.63;;;358.60;2329.60;;;;;;5091915;28;20127;-74
2021/10/23 03:46:22;;;;;;;31.05;25.52;;;358.70;2329.60;;;;;;5095730;28;20032;-75
2021/10/23 03:48:48;;;;;;;41.17;32.20;;;358.70;2329.60;;;;;;5095450;28;20051;-76
2021/10/23 03:51:14;;;;;;;41.08;32.50;;;358.70;2329.60;;;;;;5095491;28;20020;-75
2021/10/23 03:53:40;;;;;;;34.05;28.45;;;358.70;2329.60;;;;;;5095172;28;20361;-75
2021/10/23 03:56:05;;;;;;;38.40;31.75;;;358.80;2329.60;;;;;;5096998;28;20036;-75
2021/10/23 03:58:31;;;;;;;43.65;35.72;;;358.80;2329.60;;;;;;5094991;28;20114;-75
2021/10/23 04:00:57;;;;;;;39.90;32.78;;;358.80;2329.60;;;;;;5096578;28;20023;-75
2021/10/23 04:03:23;;;;;;;40.83;33.42;;;358.80;2329.60;;;;;;5095314;28;20031;-75
2021/10/23 04:05:49;;;;;;;41.53;32.28;;;358.80;2329.60;;;;;;5094817;28;20460;-75
2021/10/23 04:08:14;;;;;;;40.35;31.75;;;358.80;2329.60;;;;;;5095048;28;20027;-74
2021/10/23 04:10:40;;;;;;;41.10;32.17;;;358.80;2329.60;;;;;;5096451;28;20028;-75
2021/10/23 04:13:06;;;;;;;38.45;31.00;;;358.70;2329.60;;;;;;5094774;28;20061;-75
2021/10/23 04:15:33;;;;;;;35.97;31.73;;;358.70;2329.60;;;;;;5094997;28;20028;-75
2021/10/23 04:17:59;;;;;;;40.53;32.15;;;358.80;2329.60;;;;;;5096285;28;20024;-75
2021/10/23 04:20:25;;;;;;;40.72;32.55;;;358.80;2329.60;;;;;;5094702;28;20030;-76
2021/10/23 04:22:51;;;;;;;41.97;31.90;;;358.80;2329.60;;;;;;5095000;28;20024;-76
2021/10/23 04:25:17;;;;;;;43.67;33.03;;;358.80;2329.60;;;;;;5094817;28;20032;-77
2021/10/23 04:27:43;;;;;;;38.97;31.08;;;358.60;2329.60;;;;;;5095594;28;20540;-76
2021/10/23 04:30:09;;;;;;;37.50;30.40;;;358.60;2329.60;;;;;;5094753;28;20126;-76
2021/10/23 04:32:35;;;;;;;39.25;31.08;;;358.50;2329.60;;;;;;5094696;28;20122;-77
2021/10/23 04:35:03;;;;;;;40.10;30.55;;;358.50;2329.60;;;;;;5095519;28;20048;-75
2021/10/23 04:37:29;;;;;;;44.70;30.38;;;358.60;2329.60;;;;;;5094673;28;20024;-75
2021/10/23 04:39:55;;;;;;;35.92;28.95;;;358.60;2329.60;;;;;;5094523;28;20075;-75
2021/10/23 04:42:21;;;;;;;39.97;30.90;;;358.60;2329.60;;;;;;5095466;28;20404;-75
2021/10/23 04:44:47;;;;;;;34.20;28.25;;;358.70;2329.60;;;;;;5094410;28;20040;-75
2021/10/23 04:47:13;;;;;;;42.60;34.65;;;358.70;2329.60;;;;;;5094404;28;20027;-76
2021/10/23 04:49:38;;;;;;;45.15;35.92;;;358.70;2329.60;;;;;;5095328;28;20024;-76
2021/10/23 04:52:04;;;;;;;50.13;36.53;;;358.70;2329.60;;;;;;5094364;28;20028;-74
2021/10/23 04:54:30;;;;;;;48.53;37.53;;;358.70;2329.60;;;;;;5095285;28;20024;-74
2021/10/23 04:56:56;;;;;;;51.28;39.28;;;358.70;2329.60;;;;;;5095213;28;20032;-75
2021/10/23 04:59:22;;;;;;;46.10;37.28;;;358.70;2329.60;;;;;;5095460;28;20031;-76
2021/10/23 05:01:47;;;;;;;52.78;39.50;;;358.60;2329.60;;;;;;5093814;28;20024;-75
2021/10/23 05:04:13;;;;;;;51.53;38.40;;;358.60;2329.60;;;;;;5094071;28;20020;-77
2021/10/23 05:06:39;;;;;;;51.22;40.58;;;358.60;2329.60;;;;;;5093669;28;20119;-75
2021/10/23 05:09:05;;;;;;;53.58;41.38;;;358.70;2329.60;;;;;;5093692;28;20024;-75
2021/10/23 05:11:31;;;;;;;59.25;45.55;;;358.70;2329.60;;;;;;5093947;28;20081;-75
2021/10/23 05:13:56;;;;;;;138.40;107.57;;;358.70;2329.60;;;;;;5093908;28;20039;-76
2021/10/23 05:16:22;;;;;;;125.97;97.13;;;358.60;2329.60;;;;;;5093569;28;20028;-76
2021/10/23 05:18:49;;;;;;;83.43;63.55;;;358.70;2329.60;;;;;;5095123;28;20020;-77
2021/10/23 05:21:17;;;;;;;72.20;60.40;;;358.70;2329.60;;;;;;5093785;28;20065;-76
2021/10/23 05:23:44;;;;;;;78.03;61.38;;;358.60;2329.60;;;;;;5094389;28;20020;-75
2021/10/23 05:26:10;;;;;;;81.57;65.28;;;358.60;2329.60;;;;;;5093652;28;20036;-78
2021/10/23 05:28:35;;;;;;;82.80;58.88;;;358.70;2329.60;;;;;;5095184;28;20038;-75
2021/10/23 05:31:01;;;;;;;70.43;54.20;;;358.70;2329.60;;;;;;5109495;28;20024;-73
2021/10/23 05:33:27;;;;;;;75.20;51.53;;;359.00;2329.60;;;;;;5114391;28;20039;-74
2021/10/23 05:35:53;;;;;;;74.82;57.80;;;358.90;2329.60;;;;;;5096906;28;20051;-76
2021/10/23 05:38:19;;;;;;;107.25;78.75;;;358.90;2329.60;;;;;;5094804;28;20028;-76
2021/10/23 05:40:45;;;;;;;70.22;53.92;;;358.80;2329.60;;;;;;5094548;28;20144;-77
2021/10/23 05:43:10;;;;;;;59.05;45.28;;;358.80;2329.60;;;;;;5094568;28;20028;-76
2021/10/23 05:45:36;;;;;;;59.60;46.63;;;358.80;2329.60;;;;;;5094379;28;20051;-75
2021/10/23 05:48:02;;;;;;;58.25;47.63;;;358.80;2329.60;;;;;;5093298;28;20024;-77
2021/10/23 05:50:28;;;;;;;66.55;53.83;;;358.70;2329.60;;;;;;5094049;28;20028;-76
2021/10/23 05:52:54;;;;;;;77.70;61.10;;;358.70;2329.60;;;;;;5093241;28;20032;-76
2021/10/23 05:55:20;;;;;;;59.97;50.30;;;358.60;2329.60;;;;;;5093149;28;20452;-75
2021/10/23 05:57:46;;;;;;;56.28;42.53;;;358.80;2329.60;;;;;;5094149;28;20452;-76
2021/10/23 06:00:13;;;;;;;59.50;47.50;;;358.80;2329.60;;;;;;5093169;28;20024;-76
2021/10/23 06:02:39;;;;;;;77.07;58.47;;;358.80;2329.60;;;;;;5094183;28;20084;-75
2021/10/23 06:05:06;;;;;;;96.50;73.20;;;358.80;2329.60;;;;;;5094251;28;20035;-75
2021/10/23 06:07:36;;;;;;;92.07;71.32;;;358.80;2329.60;;;;;;5092742;28;20051;-75
2021/10/23 06:10:04;;;;;;;98.60;77.45;;;358.90;2329.60;;;;;;5093058;28;20115;-75
2021/10/23 06:12:31;;;;;;;110.43;83.47;;;359.00;2329.60;;;;;;5092525;28;20107;-76
2021/10/23 06:14:57;;;;;;;117.00;89.20;;;358.90;2329.60;;;;;;5092959;28;20066;-76
2021/10/23 06:17:23;;;;;;;107.72;84.68;;;359.00;2329.60;;;;;;5092857;28;20016;-76
2021/10/23 06:19:50;;;;;;;111.85;88.22;;;359.00;2329.60;;;;;;5092676;28;20375;-74
2021/10/23 06:22:16;;;;;;;112.38;88.85;;;359.00;2329.60;;;;;;5092802;28;20031;-74
2021/10/23 06:24:42;;;;;;;118.20;93.25;;;359.00;2329.60;;;;;;5094192;28;20032;-75
2021/10/23 06:27:08;;;;;;;122.07;93.88;;;359.00;2329.60;;;;;;5092334;28;20112;-75
2021/10/23 06:29:34;;;;;;;120.35;87.50;;;359.00;2329.60;;;;;;5092577;28;20031;-74
2021/10/23 06:32:00;;;;;;;130.25;94.55;;;359.00;2329.60;;;;;;5092629;28;20062;-75
2021/10/23 06:34:28;;;;;;;127.43;92.72;;;359.00;2329.60;;;;;;5092065;28;20048;-75
2021/10/23 06:36:54;;;;;;;112.07;84.88;;;359.00;2329.60;;;;;;5092503;28;20024;-76
2021/10/23 06:39:20;;;;;;;118.63;85.00;;;359.00;2329.60;;;;;;5093510;28;20052;-74
2021/10/23 06:41:45;;;;;;;117.53;89.95;;;359.00;2329.60;;;;;;5092409;28;20495;-75
2021/10/23 06:44:11;;;;;;;108.18;82.78;;;358.80;2329.60;;;;;;5093820;28;20112;-74
2021/10/23 06:46:38;;;;;;;123.50;97.25;;;358.80;2329.60;;;;;;5093299;28;20043;-76
2021/10/23 06:49:06;;;;;;;99.10;75.13;;;358.80;2329.60;;;;;;5092454;28;20028;-75
2021/10/23 06:51:32;;;;;;;89.93;70.50;;;358.80;2329.60;;;;;;5093709;28;20021;-75
2021/10/23 06:53:59;;;;;;;80.88;62.83;;;358.80;2329.60;;;;;;5092140;28;20028;-75
2021/10/23 06:56:26;;;;;;;83.82;69.80;;;358.80;2329.60;;;;;;5093646;28;20035;-74
2021/10/23 06:58:52;;;;;;;66.13;53.90;;;358.90;2329.60;;;;;;5092366;28;20024;-77
2021/10/23 07:01:19;;;;;;;71.28;54.13;;;358.80;2329.60;;;;;;5093578;28;20073;-76
2021/10/23 07:03:45;;;;;;;79.18;61.17;;;358.90;2329.60;;;;;;5093345;28;20495;-74
2021/10/23 07:06:12;;;;;;;79.55;61.50;;;358.80;2329.60;;;;;;5092226;28;20036;-74
2021/10/23 07:08:38;;;;;;;78.32;60.28;;;358.90;2329.60;;;;;;5092040;28;20148;-75
2021/10/23 07:11:04;;;;;;;90.57;69.88;;;359.00;2329.60;;;;;;5092242;28;20112;-74
2021/10/23 07:13:30;;;;;;;97.28;72.63;;;359.00;2329.60;;;;;;5092457;28;20035;-76
2021/10/23 07:15:56;;;;;;;111.13;76.43;;;359.00;2329.60;;;;;;5093067;28;20505;-75
2021/10/23 07:18:22;;;;;;;112.10;76.97;;;359.00;2329.60;;;;;;5092498;28;20032;-75
2021/10/23 07:20:48;;;;;;;106.38;73.05;;;359.10;2329.60;;;;;;5095965;28;20024;-74
2021/10/23 07:23:14;;;;;;;103.30;71.68;;;359.20;2329.60;;;;;;5095736;28;20487;-73
2021/10/23 07:25:41;;;;;;;103.10;71.47;;;359.20;2329.60;;;;;;5095912;28;20044;-74
2021/10/23 07:28:07;;;;;;;103.78;73.25;;;359.10;2329.60;;;;;;5095924;28;20518;-75
2021/10/23 07:30:33;;;;;;;102.80;70.22;;;359.00;2329.60;;;;;;5095591;28;20107;-76
2021/10/23 07:32:58;;;;;;;126.43;80.55;;;359.10;2329.60;;;;;;5096195;28;20529;-75
2021/10/23 07:35:24;;;;;;;84.93;62.58;;;359.10;2329.60;;;;;;5095029;28;20052;-75
2021/10/23 07:37:50;;;;;;;102.65;71.63;;;359.20;2329.60;;;;;;5097077;28;20024;-76
2021/10/23 07:40:16;;;;;;;94.65;69.28;;;359.20;2329.60;;;;;;5096669;28;20408;-77
2021/10/23 07:42:42;;;;;;;86.25;65.28;;;359.20;2329.60;;;;;;5096339;28;20024;-76
2021/10/23 07:45:12;;;;;;;76.40;57.30;;;359.20;2329.60;;;;;;5095540;28;20033;-75
2021/10/23 07:47:39;;;;;;;79.28;58.60;;;359.20;2329.60;;;;;;5096921;28;20055;-75
2021/10/23 07:50:07;;;;;;;98.18;72.80;;;359.30;2329.60;;;;;;5096488;28;20105;-76
2021/10/23 07:52:33;;;;;;;95.72;81.00;;;384.00;2329.60;;;;;;5095638;28;20529;-77
2021/10/23 07:54:59;;;;;;;79.03;67.65;;;384.10;2329.60;;;;;;5096381;28;20055;-75
2021/10/23 07:57:24;;;;;;;82.72;65.38;;;384.10;2329.60;;;;;;5095063;28;20452;-75
2021/10/23 07:59:50;;;;;;;65.47;54.15;;;384.20;2329.60;;;;;;5096368;28;20027;-76
2021/10/23 08:02:16;;;;;;;63.50;52.65;;;384.30;2329.60;;;;;;5095410;28;20618;-76
2021/10/23 08:04:42;;;;;;;57.42;48.80;;;384.40;2329.60;;;;;;5094636;28;20442;-76
2021/10/23 08:07:08;;;;;;;48.75;39.78;;;384.40;2329.60;;;;;;5094726;28;20036;-76
2021/10/23 08:09:36;;;;;;;47.13;38.45;;;384.40;2329.60;;;;;;5094981;28;20123;-75
2021/10/23 08:12:03;;;;;;;49.25;40.33;;;384.40;2329.60;;;;;;5094653;28;20020;-75
2021/10/23 08:14:29;;;;;;;61.88;50.92;;;384.50;2329.60;;;;;;5094928;28;20475;-76
2021/10/23 08:16:56;;;;;;;61.33;51.05;;;384.30;2329.60;;;;;;5094816;28;20152;-75
2021/10/23 08:19:22;;;;;;;68.45;55.80;;;384.40;2329.60;;;;;;5094421;28;20032;-76
2021/10/23 08:21:49;;;;;;;66.85;54.10;;;384.40;2329.60;;;;;;5094701;28;20036;-78
2021/10/23 08:24:15;;;;;;;66.50;51.97;;;384.50;2329.60;;;;;;5094691;28;20379;-76
2021/10/23 08:26:42;;;;;;;61.92;50.40;;;384.40;2329.60;;;;;;5094270;28;20062;-77
2021/10/23 08:29:08;;;;;;;60.60;50.90;;;384.70;2329.60;;;;;;5095855;28;20024;-75
2021/10/23 08:31:34;;;;;;;59.22;50.22;;;384.80;2329.60;;;;;;5093860;28;20024;-75
2021/10/23 08:34:00;;;;;;;60.78;49.53;;;384.90;2329.60;;;;;;5094298;28;20020;-75
2021/10/23 08:36:28;;;;;;;62.22;52.38;;;384.90;2329.60;;;;;;5094401;28;20040;-75
2021/10/23 08:38:54;;;;;;;62.33;50.83;;;409.60;2355.20;;;;;;5094026;28;20048;-75
2021/10/23 08:41:21;;;;;;;62.67;52.15;;;384.90;2329.60;;;;;;5094593;28;20028;-76
2021/10/23 08:43:47;;;;;;;66.65;52.60;;;384.90;2329.60;;;;;;5095241;28;20484;-73
2021/10/23 08:46:18;;;;;;;70.10;55.38;;;384.80;2329.60;;;;;;5092625;28;20036;-74
2021/10/23 08:48:46;;;;;;;74.88;60.63;;;384.90;2329.60;;;;;;5092924;28;20039;-74
2021/10/23 08:51:13;;;;;;;79.00;59.97;;;409.60;2355.20;;;;;;5094034;28;20024;-73
2021/10/23 08:53:40;;;;;;;71.38;56.58;;;409.70;2355.20;;;;;;5093827;28;20027;-74
2021/10/23 08:56:07;;;;;;;75.30;59.10;;;409.70;2355.20;;;;;;5093536;28;20490;-73
2021/10/23 08:58:34;;;;;;;76.95;61.53;;;409.70;2355.20;;;;;;5095544;28;20024;-74
2021/10/23 09:01:00;;;;;;;74.00;62.25;;;409.60;2355.20;;;;;;5093687;28;20486;-74
2021/10/23 09:03:26;;;;;;;75.80;60.65;;;409.60;2355.20;;;;;;5095083;28;20107;-73
2021/10/23 09:05:52;;;;;;;73.78;62.85;;;409.60;2355.20;;;;;;5093131;28;20050;-73
2021/10/23 09:08:20;;;;;;;79.50;61.53;;;384.90;2329.60;;;;;;5094959;28;20028;-75
2021/10/23 09:10:49;;;;;;;79.35;64.00;;;384.90;2329.60;;;;;;5093650;28;20074;-76
2021/10/23 09:13:30;;;;;;;86.32;69.32;;;384.90;2329.60;;;;;;5095178;28;20028;-75
2021/10/23 09:15:56;;;;;;;82.20;68.15;;;409.60;2355.20;;;;;;5093815;28;20119;-74
2021/10/23 09:18:44;;;;;;;85.53;70.65;;;409.70;2355.20;;;;;;5095265;28;20063;-76
2021/10/23 09:21:16;;;;;;;80.07;66.32;;;409.70;2355.20;;;;;;5093534;28;20456;-73
2021/10/23 09:23:42;;;;;;;84.50;68.35;;;409.70;2355.20;;;;;;5093665;28;20049;-74
2021/10/23 09:26:10;;;;;;;87.65;70.00;;;409.70;2355.20;;;;;;5094637;28;20456;-74
2021/10/23 09:28:35;;;;;;;81.53;66.18;;;409.70;2355.20;;;;;;5093233;28;20084;-74
2021/10/23 09:31:01;;;;;;;85.10;67.70;;;409.70;2355.20;;;;;;5093481;28;20032;-73
2021/10/23 09:33:32;;;;;;;80.95;65.30;;;409.60;2355.20;;;;;;5094419;28;20024;-75
2021/10/23 09:36:03;;;;;;;80.75;66.90;;;409.70;2355.20;;;;;;5092851;28;20059;-74
2021/10/23 09:38:31;;;;;;;87.30;69.97;;;409.70;2355.20;;;;;;5094947;28;20160;-73
2021/10/23 09:41:13;;;;;;;119.70;98.80;;;409.70;2355.20;;;;;;5093330;28;20040;-73
2021/10/23 09:43:39;;;;;;;113.30;91.13;;;409.70;2355.20;;;;;;5093318;28;20067;-75
2021/10/23 09:46:11;;;;;;;120.68;94.72;;;409.70;2355.20;;;;;;5093143;28;20383;-73
2021/10/23 09:48:51;;;;;;;134.73;110.73;;;409.70;2355.20;;;;;;5094201;28;20493;-74
2021/10/23 09:51:26;;;;;;;133.15;107.97;;;409.70;2355.20;;;;;;5093231;28;20032;-74
2021/10/23 09:53:55;;;;;;;119.40;100.07;;;409.60;2355.20;;;;;;5080885;28;20035;-73
2021/10/23 09:56:25;;;;;;;126.13;101.28;;;409.70;2355.20;;;;;;5072486;28;20027;-73
2021/10/23 09:58:58;;;;;;;78.25;66.25;;;409.70;2355.20;;;;;;5071671;28;20423;-72
2021/10/23 10:01:40;;;;;;;82.38;69.10;;;384.90;2329.60;;;;;;5071407;28;20089;-75
2021/10/23 10:04:08;;;;;;;118.38;96.63;;;384.90;2329.60;;;;;;5071517;28;20035;-72
2021/10/23 10:06:42;;;;;;;103.53;86.05;;;384.90;2329.60;;;;;;5072981;28;20082;-73
2021/10/23 10:09:23;;;;;;;85.38;70.20;;;384.90;2329.60;;;;;;5072234;28;20032;-74
2021/10/23 10:11:56;;;;;;;63.35;50.85;;;384.80;2329.60;;;;;;5071783;28;20037;-71
2021/10/23 10:14:27;;;;;;;29.73;23.35;;;384.70;2329.60;;;;;;5087042;28;20062;-73
2021/10/23 10:16:56;;;;;;;31.33;26.25;;;384.50;2329.60;;;;;;5092987;28;20031;-73
2021/10/23 10:19:22;;;;;;;22.25;17.30;;;384.40;2329.60;;;;;;5091400;28;20387;-73
2021/10/23 10:21:50;;;;;;;26.25;19.80;;;384.20;2329.60;;;;;;5086889;28;20024;-74
2021/10/23 10:24:28;;;;;;;20.30;15.32;;;384.10;2329.60;;;;;;5091494;28;20085;-75
2021/10/23 10:26:56;;;;;;;19.27;14.30;;;384.00;2329.60;;;;;;5092984;28;20093;-74
2021/10/23 10:32:23;;;;;;;18.48;14.45;;;359.10;2329.60;;;;;;5092511;28;20027;-73
2021/10/23 10:42:57;;;;;;;20.15;13.60;;;358.80;2329.60;;;;;;5092689;28;20072;-74
2021/10/23 10:45:55;;;;;;;23.65;17.15;;;358.60;2329.60;;;;;;5095398;28;20028;-73
2021/10/23 10:48:29;;;;;;;16.10;11.70;;;358.50;2329.60;;;;;;5096115;28;20521;-73
2021/10/23 10:50:55;;;;;;;22.60;16.30;;;333.70;2329.60;;;;;;5093597;28;20027;-73
2021/10/23 10:53:26;;;;;;;17.15;11.68;;;333.50;2329.60;;;;;;5092244;28;20024;-73
2021/10/23 10:56:03;;;;;;;14.27;8.77;;;333.40;2329.60;;;;;;5098106;28;20059;-73
2021/10/23 10:58:53;;;;;;;13.57;9.00;;;333.10;2329.60;;;;;;5097494;28;20024;-74
2021/10/23 11:01:28;;;;;;;17.95;11.63;;;333.00;2329.60;;;;;;5097561;28;20050;-75
2021/10/23 11:04:11;;;;;;;20.30;15.63;;;332.80;2329.60;;;;;;5097888;28;20024;-73
2021/10/23 11:06:42;;;;;;;37.53;21.30;;;332.80;2329.60;;;;;;5096087;28;20044;-73
2021/10/23 11:09:08;;;;;;;49.92;25.60;;;308.10;2304.00;;;;;;5096400;28;20034;-74
2021/10/23 11:11:46;;;;;;;25.23;15.40;;;308.00;2304.00;;;;;;5096255;28;20115;-75
2021/10/23 11:16:50;;;;;;;21.33;12.65;;;307.90;2304.00;;;;;;5097478;28;20035;-74
2021/10/23 11:19:17;;;;;;;14.85;7.88;;;307.70;2304.00;;;;;;5095847;28;20075;-73
2021/10/23 11:21:43;;;;;;;18.23;9.68;;;307.60;2304.00;;;;;;5096070;28;20464;-74
2021/10/23 11:24:09;;;;;;;15.23;9.40;;;307.60;2304.00;;;;;;5095783;28;20039;-74
2021/10/23 11:26:35;;;;;;;16.77;9.70;;;307.60;2304.00;;;;;;5096844;28;20341;-76
2021/10/23 11:29:20;;;;;;;15.73;10.77;;;307.60;2304.00;;;;;;5095897;28;20118;-73
2021/10/23 11:31:47;;;;;;;19.40;12.88;;;307.60;2304.00;;;;;;5095898;28;20130;-73
2021/10/23 11:34:22;;;;;;;13.52;8.70;;;307.50;2304.00;;;;;;5095104;28;20024;-73
2021/10/23 11:37:11;;;;;;;12.13;8.15;;;307.60;2304.00;;;;;;5095819;28;20055;-74
2021/10/23 11:39:40;;;;;;;16.77;10.70;;;307.50;2304.00;;;;;;5097117;28;20024;-75
2021/10/23 11:42:22;;;;;;;25.50;9.40;;;307.40;2304.00;;;;;;5095447;28;20434;-74
2021/10/23 11:45:03;;;;;;;14.13;8.35;;;307.50;2304.00;;;;;;5095619;28;20111;-76
2021/10/23 11:47:30;;;;;;;11.02;6.75;;;307.60;2304.00;;;;;;5095425;28;20112;-77
2021/10/23 11:50:27;;;;;;;11.02;7.55;;;307.50;2304.00;;;;;;5096834;28;20051;-75
2021/10/23 11:53:02;;;;;;;12.40;7.88;;;307.50;2304.00;;;;;;5095814;28;20036;-76
2021/10/23 11:55:34;;;;;;;12.57;8.57;;;307.40;2304.00;;;;;;5095221;28;20077;-76
2021/10/23 11:58:06;;;;;;;14.80;7.90;;;307.40;2304.00;;;;;;5095574;28;20387;-76
2021/10/23 12:00:38;;;;;;;13.55;9.32;;;307.40;2304.00;;;;;;5095363;28;20038;-75
2021/10/23 12:03:06;;;;;;;16.17;9.32;;;307.40;2304.00;;;;;;5095119;28;20441;-74
2021/10/23 12:05:44;;;;;;;15.25;10.07;;;307.40;2304.00;;;;;;5094397;28;20039;-74
2021/10/23 12:08:16;;;;;;;15.27;9.13;;;307.50;2304.00;;;;;;5095261;28;20467;-74
2021/10/23 12:11:17;;;;;;;14.25;9.07;;;307.40;2304.00;;;;;;5095202;28;20031;-74
2021/10/23 12:13:47;;;;;;;14.55;9.93;;;307.50;2304.00;;;;;;5095186;28;20055;-75
2021/10/23 12:16:15;;;;;;;13.50;7.60;;;307.40;2304.00;;;;;;5094872;28;20081;-75